Time;durP1;ratioP1;P1;durP2;ratioP2;P2;SDS_P1;SDS_P2;PMS_P1;PMS_P2;Temp;Humidity;BMP_temperature;BMP_pressure;BME280_temperature;BME280_humidity;BME280_pressure;Samples;Min_cycle;Max_cycle;Signal;HPM_P1;HPM_P2
2023/08/26 00:00:32;;;;;;;0.50;0.22;;;;;;;;;;5003100;28;20030;-82
2023/08/26 00:02:58;;;;;;;0.20;0.10;;;;;;;;;;4994564;28;20038;-82
2023/08/26 00:05:24;;;;;;;0.20;0.20;;;;;;;;;;5007473;28;20502;-84
2023/08/26 00:07:53;;;;;;;0.43;0.43;;;;;;;;;;5005568;28;20042;-83
2023/08/26 00:10:19;;;;;;;0.20;0.10;;;;;;;;;;5001224;28;20069;-82
2023/08/26 00:12:45;;;;;;;0.50;0.32;;;;;;;;;;5017288;28;20420;-82
2023/08/26 00:15:11;;;;;;;0.45;0.43;;;;;;;;;;4994924;28;20401;-83
2023/08/26 00:17:37;;;;;;;0.30;0.25;;;;;;;;;;5014505;28;20035;-82
2023/08/26 00:20:05;;;;;;;0.20;0.20;;;;;;;;;;5009587;28;20168;-82
2023/08/26 00:22:32;;;;;;;0.22;0.22;;;;;;;;;;4993039;28;20061;-82
2023/08/26 00:24:58;;;;;;;0.20;0.17;;;;;;;;;;5009447;28;20570;-83
2023/08/26 00:27:24;;;;;;;2.70;1.38;;;;;;;;;;5014205;28;20037;-83
2023/08/26 00:29:50;;;;;;;1.40;1.15;;;;;;;;;;5015256;28;20037;-83
2023/08/26 00:32:16;;;;;;;0.20;0.10;;;;;;;;;;4995224;28;20048;-84
2023/08/26 00:34:45;;;;;;;0.22;0.17;;;;;;;;;;4997190;28;20136;-85
2023/08/26 00:37:12;;;;;;;0.63;0.40;;;;;;;;;;4994713;28;20353;-85
2023/08/26 00:39:38;;;;;;;0.20;0.10;;;;;;;;;;5000108;28;20073;-83
2023/08/26 00:42:04;;;;;;;0.20;0.10;;;;;;;;;;4994237;28;20334;-83
2023/08/26 00:44:30;;;;;;;0.20;0.10;;;;;;;;;;4988136;28;20040;-84
2023/08/26 00:46:56;;;;;;;0.20;0.10;;;;;;;;;;4997313;28;20045;-84
2023/08/26 00:49:23;;;;;;;0.20;0.10;;;;;;;;;;4995004;28;20041;-84
2023/08/26 00:51:49;;;;;;;1.95;0.30;;;;;;;;;;4995199;28;20049;-84
2023/08/26 00:54:16;;;;;;;0.20;0.10;;;;;;;;;;5004055;28;21032;-83
2023/08/26 00:56:42;;;;;;;0.30;0.30;;;;;;;;;;4992225;28;20034;-82
2023/08/26 00:59:08;;;;;;;0.20;0.10;;;;;;;;;;5011230;28;20487;-82
2023/08/26 01:01:34;;;;;;;0.40;0.30;;;;;;;;;;5004041;28;20418;-83
2023/08/26 01:04:00;;;;;;;0.20;0.10;;;;;;;;;;4992961;28;20042;-83
2023/08/26 01:06:26;;;;;;;0.20;0.10;;;;;;;;;;5009916;28;20034;-82
2023/08/26 01:08:52;;;;;;;0.30;0.20;;;;;;;;;;4987124;28;20057;-82
2023/08/26 01:11:18;;;;;;;0.20;0.10;;;;;;;;;;5008190;28;20034;-85
2023/08/26 01:14:04;;;;;;;0.20;0.13;;;;;;;;;;4987111;28;20048;-83
2023/08/26 01:16:31;;;;;;;0.20;0.10;;;;;;;;;;5003120;28;20051;-84
2023/08/26 01:18:57;;;;;;;0.20;0.10;;;;;;;;;;5004063;28;20119;-83
2023/08/26 01:21:26;;;;;;;0.20;0.10;;;;;;;;;;4993391;28;20048;-83
2023/08/26 01:23:52;;;;;;;0.25;0.20;;;;;;;;;;4987000;28;20033;-82
2023/08/26 01:26:18;;;;;;;0.57;0.20;;;;;;;;;;5007659;28;20514;-83
2023/08/26 01:28:44;;;;;;;0.20;0.10;;;;;;;;;;5008376;28;20476;-82
2023/08/26 01:31:12;;;;;;;0.25;0.20;;;;;;;;;;5002690;28;20077;-83
2023/08/26 01:33:57;;;;;;;0.20;0.10;;;;;;;;;;5008439;28;20045;-83
2023/08/26 01:36:26;;;;;;;0.57;0.38;;;;;;;;;;5010442;28;20040;-84
2023/08/26 01:38:52;;;;;;;0.22;0.20;;;;;;;;;;4988718;28;20042;-83
2023/08/26 01:41:20;;;;;;;0.20;0.10;;;;;;;;;;4984301;28;20049;-83
2023/08/26 01:43:47;;;;;;;0.20;0.10;;;;;;;;;;4998999;28;20049;-82
2023/08/26 01:46:15;;;;;;;0.30;0.22;;;;;;;;;;4994833;28;20038;-84
2023/08/26 01:48:41;;;;;;;0.30;0.25;;;;;;;;;;5008863;28;20193;-83
2023/08/26 01:51:07;;;;;;;0.20;0.10;;;;;;;;;;4993946;28;20153;-82
2023/08/26 01:53:33;;;;;;;0.20;0.10;;;;;;;;;;4990769;28;20495;-84
2023/08/26 01:55:59;;;;;;;0.47;0.17;;;;;;;;;;4992964;28;20042;-82
2023/08/26 01:58:25;;;;;;;0.20;0.10;;;;;;;;;;5004384;28;20088;-82
2023/08/26 02:00:51;;;;;;;0.20;0.05;;;;;;;;;;4994545;28;20046;-83
2023/08/26 02:03:17;;;;;;;0.20;0.10;;;;;;;;;;4990230;28;20034;-83
2023/08/26 02:05:43;;;;;;;0.40;0.38;;;;;;;;;;5020486;28;20087;-82
2023/08/26 02:08:09;;;;;;;0.75;0.32;;;;;;;;;;5008317;28;20407;-82
2023/08/26 02:10:35;;;;;;;0.20;0.10;;;;;;;;;;4990735;28;20045;-83
2023/08/26 02:13:02;;;;;;;0.30;0.30;;;;;;;;;;4989471;28;20034;-83
2023/08/26 02:15:28;;;;;;;0.25;0.15;;;;;;;;;;5010319;22;20034;-82
2023/08/26 02:17:54;;;;;;;0.20;0.00;;;;;;;;;;5058322;28;20059;-82
2023/08/26 02:20:20;;;;;;;0.35;0.35;;;;;;;;;;5054498;28;20033;-85
2023/08/26 02:22:46;;;;;;;0.28;0.20;;;;;;;;;;5038219;28;20089;-82
2023/08/26 02:25:12;;;;;;;0.43;0.43;;;;;;;;;;5040589;28;20036;-82
2023/08/26 02:27:39;;;;;;;0.35;0.13;;;;;;;;;;5051085;28;20505;-83
2023/08/26 02:30:05;;;;;;;0.25;0.15;;;;;;;;;;5054154;28;21111;-83
2023/08/26 02:32:31;;;;;;;0.20;0.10;;;;;;;;;;5035414;28;20135;-82
2023/08/26 02:34:57;;;;;;;0.20;0.20;;;;;;;;;;5039430;28;20075;-82
2023/08/26 02:37:23;;;;;;;0.28;0.17;;;;;;;;;;5035988;28;20080;-82
2023/08/26 02:39:49;;;;;;;0.20;0.10;;;;;;;;;;5047795;28;20068;-84
2023/08/26 02:42:16;;;;;;;0.32;0.20;;;;;;;;;;5038002;28;20406;-82
2023/08/26 02:44:42;;;;;;;0.35;0.17;;;;;;;;;;5031070;28;20048;-82
2023/08/26 02:47:08;;;;;;;0.20;0.10;;;;;;;;;;5037030;28;20063;-82
2023/08/26 02:49:34;;;;;;;0.28;0.15;;;;;;;;;;5049764;28;20472;-82
2023/08/26 02:52:00;;;;;;;0.25;0.25;;;;;;;;;;5048206;28;20036;-82
2023/08/26 02:54:26;;;;;;;0.20;0.20;;;;;;;;;;5036380;28;20071;-85
2023/08/26 02:56:52;;;;;;;0.20;0.10;;;;;;;;;;5036704;28;20036;-81
2023/08/26 02:59:18;;;;;;;0.20;0.10;;;;;;;;;;5042785;28;20047;-82
2023/08/26 03:01:44;;;;;;;0.20;0.10;;;;;;;;;;5043742;28;20033;-81
2023/08/26 03:04:10;;;;;;;0.20;0.00;;;;;;;;;;5047734;28;20119;-83
2023/08/26 03:06:37;;;;;;;0.20;0.17;;;;;;;;;;5048765;28;20139;-83
2023/08/26 03:09:03;;;;;;;0.30;0.30;;;;;;;;;;5026934;28;20416;-83
2023/08/26 03:11:29;;;;;;;0.30;0.20;;;;;;;;;;5034610;28;20115;-83
2023/08/26 03:13:55;;;;;;;0.20;0.00;;;;;;;;;;5048321;28;20094;-82
2023/08/26 03:16:21;;;;;;;0.20;0.20;;;;;;;;;;5048755;28;20041;-82
2023/08/26 03:18:47;;;;;;;0.20;0.05;;;;;;;;;;5029681;28;20044;-82
2023/08/26 03:21:14;;;;;;;0.20;0.10;;;;;;;;;;5051405;28;20028;-82
2023/08/26 03:23:40;;;;;;;0.20;0.10;;;;;;;;;;5050415;28;20044;-82
2023/08/26 03:26:06;;;;;;;0.20;0.10;;;;;;;;;;5051115;28;20052;-82
2023/08/26 03:28:32;;;;;;;0.57;0.10;;;;;;;;;;5057846;28;20117;-82
2023/08/26 03:31:02;;;;;;;0.20;0.00;;;;;;;;;;5034400;28;20098;-85
2023/08/26 03:33:28;;;;;;;0.40;0.40;;;;;;;;;;5049278;28;20033;-83
2023/08/26 03:35:54;;;;;;;0.20;0.10;;;;;;;;;;5044053;28;20033;-83
2023/08/26 03:38:20;;;;;;;0.22;0.15;;;;;;;;;;5046599;28;20135;-82
2023/08/26 03:40:46;;;;;;;0.20;0.10;;;;;;;;;;5036088;28;20029;-85
2023/08/26 03:43:12;;;;;;;0.57;0.20;;;;;;;;;;5034395;28;20040;-83
2023/08/26 03:45:39;;;;;;;0.20;0.10;;;;;;;;;;5033604;28;20040;-84
2023/08/26 03:48:05;;;;;;;0.20;0.10;;;;;;;;;;5045208;28;20044;-83
2023/08/26 03:50:31;;;;;;;0.30;0.20;;;;;;;;;;5040994;28;20282;-83
2023/08/26 03:52:57;;;;;;;0.20;0.10;;;;;;;;;;5054277;28;20041;-83
2023/08/26 03:55:23;;;;;;;0.20;0.10;;;;;;;;;;5057430;28;20048;-83
2023/08/26 03:57:49;;;;;;;0.20;0.13;;;;;;;;;;5053285;28;20059;-83
2023/08/26 04:00:17;;;;;;;0.20;0.10;;;;;;;;;;5053332;28;20032;-83
2023/08/26 04:02:43;;;;;;;0.20;0.08;;;;;;;;;;5044361;28;20106;-84
2023/08/26 04:05:09;;;;;;;0.30;0.22;;;;;;;;;;5052638;28;20068;-83
2023/08/26 04:07:35;;;;;;;0.20;0.13;;;;;;;;;;5038627;28;20045;-83
2023/08/26 04:10:03;;;;;;;0.20;0.15;;;;;;;;;;5055118;28;20104;-83
2023/08/26 04:12:29;;;;;;;0.20;0.10;;;;;;;;;;5042470;28;20539;-83
2023/08/26 04:14:55;;;;;;;0.20;0.10;;;;;;;;;;5041034;28;20120;-83
2023/08/26 04:17:21;;;;;;;0.20;0.10;;;;;;;;;;5046804;28;20064;-83
2023/08/26 04:19:47;;;;;;;0.20;0.10;;;;;;;;;;5043809;28;20451;-83
2023/08/26 04:22:13;;;;;;;0.20;0.10;;;;;;;;;;5035372;28;20045;-83
2023/08/26 04:24:39;;;;;;;0.20;0.10;;;;;;;;;;5037014;28;20113;-84
2023/08/26 04:27:05;;;;;;;0.20;0.10;;;;;;;;;;5033069;28;20046;-84
2023/08/26 04:29:31;;;;;;;0.20;0.10;;;;;;;;;;5033140;28;20421;-82
2023/08/26 04:31:57;;;;;;;0.30;0.28;;;;;;;;;;5035302;28;20048;-82
2023/08/26 04:34:23;;;;;;;0.20;0.20;;;;;;;;;;5031079;28;20074;-83
2023/08/26 04:36:50;;;;;;;0.20;0.10;;;;;;;;;;5045210;28;20063;-83
2023/08/26 04:39:19;;;;;;;0.20;0.15;;;;;;;;;;5054404;28;20029;-82
2023/08/26 04:41:45;;;;;;;0.30;0.20;;;;;;;;;;5037267;28;20059;-84
2023/08/26 04:44:12;;;;;;;0.20;0.10;;;;;;;;;;5035077;28;20033;-83
2023/08/26 04:46:38;;;;;;;0.20;0.08;;;;;;;;;;5049593;28;20049;-82
2023/08/26 04:49:04;;;;;;;0.20;0.20;;;;;;;;;;5038919;28;20520;-84
2023/08/26 04:51:30;;;;;;;0.20;0.10;;;;;;;;;;5042763;28;20045;-83
2023/08/26 04:53:56;;;;;;;0.43;0.38;;;;;;;;;;5045424;28;20033;-84
2023/08/26 04:56:23;;;;;;;0.20;0.20;;;;;;;;;;5050570;28;20412;-82
2023/08/26 04:58:49;;;;;;;0.20;0.05;;;;;;;;;;5052018;28;20032;-83
2023/08/26 05:01:15;;;;;;;0.20;0.10;;;;;;;;;;5054465;28;20117;-82
2023/08/26 05:03:41;;;;;;;0.20;0.13;;;;;;;;;;5039389;28;20059;-82
2023/08/26 05:06:07;;;;;;;0.20;0.20;;;;;;;;;;5051798;28;20033;-82
2023/08/26 05:08:33;;;;;;;0.20;0.10;;;;;;;;;;5046696;28;20063;-82
2023/08/26 05:10:59;;;;;;;0.20;0.10;;;;;;;;;;5036202;28;20048;-82
2023/08/26 05:13:26;;;;;;;0.22;0.10;;;;;;;;;;5040608;28;20033;-83
2023/08/26 05:15:52;;;;;;;0.28;0.20;;;;;;;;;;5040855;28;20039;-83
2023/08/26 05:18:18;;;;;;;0.30;0.30;;;;;;;;;;5051746;28;20033;-82
2023/08/26 05:20:48;;;;;;;0.47;0.17;;;;;;;;;;5043378;28;20068;-82
2023/08/26 05:23:14;;;;;;;0.20;0.10;;;;;;;;;;5051589;28;20105;-83
2023/08/26 05:25:43;;;;;;;0.20;0.10;;;;;;;;;;5054738;28;20169;-83
2023/08/26 05:28:10;;;;;;;0.20;0.10;;;;;;;;;;5056022;28;20037;-85
2023/08/26 05:30:36;;;;;;;0.30;0.10;;;;;;;;;;5043452;28;20450;-83
2023/08/26 05:33:02;;;;;;;0.20;0.10;;;;;;;;;;5039471;28;20410;-83
2023/08/26 05:35:28;;;;;;;0.20;0.00;;;;;;;;;;5050564;28;20041;-83
2023/08/26 05:37:54;;;;;;;0.20;0.10;;;;;;;;;;5049330;28;20298;-83
2023/08/26 05:40:26;;;;;;;0.50;0.22;;;;;;;;;;5049128;28;20040;-81
2023/08/26 05:42:53;;;;;;;0.40;0.30;;;;;;;;;;5047170;28;20033;-82
2023/08/26 05:45:19;;;;;;;0.22;0.20;;;;;;;;;;5062115;28;20422;-83
2023/08/26 05:47:45;;;;;;;0.50;0.20;;;;;;;;;;5039678;28;20045;-82
2023/08/26 05:50:11;;;;;;;0.40;0.20;;;;;;;;;;5058457;28;20040;-81
2023/08/26 05:52:37;;;;;;;0.40;0.20;;;;;;;;;;5059148;28;20064;-82
2023/08/26 05:55:03;;;;;;;0.20;0.10;;;;;;;;;;5050349;28;20041;-82
2023/08/26 05:57:29;;;;;;;0.30;0.20;;;;;;;;;;5045701;28;20051;-82
2023/08/26 05:59:55;;;;;;;0.20;0.10;;;;;;;;;;5047230;28;20041;-82
2023/08/26 06:02:21;;;;;;;0.20;0.10;;;;;;;;;;5049833;28;20360;-83
2023/08/26 06:04:48;;;;;;;0.20;0.10;;;;;;;;;;5036056;28;20047;-82
2023/08/26 06:07:14;;;;;;;0.38;0.38;;;;;;;;;;5029425;28;22145;-82
2023/08/26 06:09:40;;;;;;;0.20;0.10;;;;;;;;;;5037729;28;20044;-82
2023/08/26 06:12:06;;;;;;;0.20;0.10;;;;;;;;;;5053103;28;20033;-82
2023/08/26 06:14:32;;;;;;;0.20;0.10;;;;;;;;;;5037526;28;20044;-83
2023/08/26 06:16:58;;;;;;;0.75;0.75;;;;;;;;;;5059707;28;20119;-82
2023/08/26 06:19:24;;;;;;;0.20;0.03;;;;;;;;;;5059875;28;20029;-82
2023/08/26 06:21:51;;;;;;;0.20;0.10;;;;;;;;;;5058995;28;20043;-83
2023/08/26 06:24:16;;;;;;;0.20;0.10;;;;;;;;;;5045454;28;20040;-82
2023/08/26 06:26:44;;;;;;;0.38;0.38;;;;;;;;;;5047934;28;20058;-81
2023/08/26 06:29:13;;;;;;;0.20;0.05;;;;;;;;;;5063051;28;20051;-82
2023/08/26 06:31:39;;;;;;;0.20;0.20;;;;;;;;;;5068525;28;20044;-83
2023/08/26 06:34:05;;;;;;;0.20;0.10;;;;;;;;;;5059308;28;20051;-82
2023/08/26 06:36:31;;;;;;;0.20;0.20;;;;;;;;;;5059230;28;20044;-83
2023/08/26 06:38:57;;;;;;;0.20;0.10;;;;;;;;;;5053600;28;20044;-83
2023/08/26 06:41:23;;;;;;;0.20;0.13;;;;;;;;;;5039984;28;20626;-81
2023/08/26 06:43:49;;;;;;;0.30;0.20;;;;;;;;;;5052112;28;20292;-84
2023/08/26 06:46:15;;;;;;;0.20;0.00;;;;;;;;;;5054854;28;20036;-84
2023/08/26 06:48:41;;;;;;;0.38;0.38;;;;;;;;;;5056982;28;20044;-83
2023/08/26 06:51:08;;;;;;;0.25;0.20;;;;;;;;;;5038655;28;20206;-84
2023/08/26 06:53:34;;;;;;;1.50;0.43;;;;;;;;;;5039884;28;20037;-81
2023/08/26 06:56:00;;;;;;;0.20;0.10;;;;;;;;;;5038140;28;20072;-82
2023/08/26 06:58:26;;;;;;;0.30;0.20;;;;;;;;;;5037453;28;20983;-83
2023/08/26 07:00:55;;;;;;;0.20;0.10;;;;;;;;;;5039252;28;20048;-82
2023/08/26 07:03:21;;;;;;;0.20;0.10;;;;;;;;;;5049174;28;20043;-82
2023/08/26 07:05:47;;;;;;;0.20;0.17;;;;;;;;;;5051955;28;20025;-81
2023/08/26 07:08:14;;;;;;;0.20;0.10;;;;;;;;;;5038846;28;20029;-81
2023/08/26 07:10:40;;;;;;;0.20;0.10;;;;;;;;;;5039363;28;20041;-82
2023/08/26 07:13:06;;;;;;;0.35;0.35;;;;;;;;;;5038212;28;20100;-82
2023/08/26 07:15:32;;;;;;;0.20;0.10;;;;;;;;;;5049435;28;20037;-82
2023/08/26 07:17:59;;;;;;;0.20;0.17;;;;;;;;;;5035797;28;20037;-83
2023/08/26 07:20:25;;;;;;;0.30;0.20;;;;;;;;;;5036580;28;20403;-81
2023/08/26 07:22:51;;;;;;;0.38;0.35;;;;;;;;;;5037035;28;20641;-85
2023/08/26 07:25:17;;;;;;;0.20;0.10;;;;;;;;;;5040303;28;20035;-82
2023/08/26 07:27:44;;;;;;;0.82;0.40;;;;;;;;;;5042029;28;20033;-84
2023/08/26 07:30:10;;;;;;;0.35;0.10;;;;;;;;;;5034679;28;20521;-82
2023/08/26 07:32:36;;;;;;;0.50;0.50;;;;;;;;;;5048021;28;20094;-80
2023/08/26 07:35:02;;;;;;;0.20;0.13;;;;;;;;;;5046996;28;20041;-82
2023/08/26 07:37:29;;;;;;;0.45;0.45;;;;;;;;;;5049381;28;20048;-85
2023/08/26 07:39:55;;;;;;;0.20;0.13;;;;;;;;;;5035866;28;20080;-84
2023/08/26 07:42:23;;;;;;;0.40;0.40;;;;;;;;;;5049763;28;20135;-85
2023/08/26 07:44:49;;;;;;;0.20;0.10;;;;;;;;;;5039034;28;20600;-83
2023/08/26 07:47:15;;;;;;;0.20;0.10;;;;;;;;;;5047364;28;20036;-83
2023/08/26 07:49:41;;;;;;;0.20;0.10;;;;;;;;;;5033616;28;21511;-83
2023/08/26 07:52:07;;;;;;;0.20;0.05;;;;;;;;;;5036807;28;20044;-85
2023/08/26 07:54:33;;;;;;;0.30;0.30;;;;;;;;;;5034574;28;20583;-87
2023/08/26 07:57:00;;;;;;;0.28;0.13;;;;;;;;;;5033700;28;20039;-85
2023/08/26 07:59:26;;;;;;;0.20;0.10;;;;;;;;;;5034952;28;20040;-86
2023/08/26 08:01:52;;;;;;;0.45;0.22;;;;;;;;;;5032734;28;20070;-83
2023/08/26 08:04:18;;;;;;;0.20;0.17;;;;;;;;;;5046851;28;20078;-83
2023/08/26 08:06:44;;;;;;;0.60;0.60;;;;;;;;;;5046708;28;20078;-85
2023/08/26 08:09:10;;;;;;;1.05;0.20;;;;;;;;;;5029901;28;20467;-83
2023/08/26 08:11:36;;;;;;;0.55;0.55;;;;;;;;;;5034090;28;20135;-82
2023/08/26 08:14:02;;;;;;;1.80;0.47;;;;;;;;;;5030399;28;20497;-83
2023/08/26 08:16:48;;;;;;;0.63;0.55;;;;;;;;;;5049969;22;20052;-86
2023/08/26 08:19:45;;;;;;;;;;;;;;;;;;;;;
2023/08/26 08:31:37;;;;;;;0.20;0.10;;;;;;;;;;5035450;28;20120;-85
2023/08/26 08:34:13;;;;;;;0.20;0.10;;;;;;;;;;5000828;28;20030;-86
2023/08/26 08:36:48;;;;;;;0.35;0.35;;;;;;;;;;4995598;28;20410;-85
2023/08/26 08:39:20;;;;;;;0.20;0.10;;;;;;;;;;5020116;28;20041;-83
2023/08/26 08:42:06;;;;;;;0.20;0.15;;;;;;;;;;4997462;28;20409;-82
2023/08/26 08:44:34;;;;;;;0.20;0.10;;;;;;;;;;5028634;28;20414;-85
2023/08/26 08:47:04;;;;;;;0.30;0.20;;;;;;;;;;5004753;28;20440;-85
2023/08/26 08:49:30;;;;;;;0.25;0.15;;;;;;;;;;5019127;28;20049;-84
2023/08/26 08:51:57;;;;;;;0.40;0.28;;;;;;;;;;5020540;28;20040;-84
2023/08/26 08:54:24;;;;;;;0.20;0.10;;;;;;;;;;4991629;28;20045;-85
2023/08/26 08:56:50;;;;;;;0.30;0.20;;;;;;;;;;5009687;28;20029;-84
2023/08/26 08:59:16;;;;;;;0.20;0.10;;;;;;;;;;5009649;28;20049;-86
2023/08/26 09:01:43;;;;;;;0.30;0.22;;;;;;;;;;5007531;28;20148;-85
2023/08/26 09:04:34;;;;;;;0.70;0.65;;;;;;;;;;5014544;28;20068;-84
2023/08/26 09:07:07;;;;;;;1.85;0.82;;;;;;;;;;5023657;28;20051;-86
2023/08/26 09:09:37;;;;;;;0.35;0.17;;;;;;;;;;5015495;28;20545;-85
2023/08/26 09:12:12;;;;;;;0.30;0.30;;;;;;;;;;5025014;28;20496;-83
2023/08/26 09:14:43;;;;;;;1.45;0.47;;;;;;;;;;5021952;28;20107;-85
2023/08/26 09:17:38;;;;;;;1.10;0.63;;;;;;;;;;5007346;28;20053;-87
2023/08/26 09:20:05;;;;;;;0.20;0.10;;;;;;;;;;4994713;28;20161;-82
2023/08/26 09:22:40;;;;;;;0.20;0.00;;;;;;;;;;5009036;28;20046;-87
2023/08/26 09:25:16;;;;;;;0.20;0.10;;;;;;;;;;5007286;28;20037;-83
2023/08/26 09:27:48;;;;;;;0.25;0.25;;;;;;;;;;5021680;28;20436;-84
2023/08/26 09:30:21;;;;;;;0.52;0.28;;;;;;;;;;5025210;28;20499;-83
2023/08/26 09:33:02;;;;;;;0.30;0.25;;;;;;;;;;5021416;28;20554;-84
2023/08/26 09:35:34;;;;;;;0.28;0.28;;;;;;;;;;5013374;28;20508;-86
2023/08/26 09:38:00;;;;;;;0.40;0.30;;;;;;;;;;5031278;28;20042;-83
2023/08/26 09:40:32;;;;;;;0.20;0.10;;;;;;;;;;4995682;28;20494;-87
2023/08/26 09:43:12;;;;;;;0.22;0.22;;;;;;;;;;4994222;28;20046;-85
2023/08/26 09:45:41;;;;;;;1.05;0.43;;;;;;;;;;5003486;28;20033;-85
2023/08/26 09:48:10;;;;;;;0.38;0.25;;;;;;;;;;5008609;28;20389;-85
2023/08/26 09:50:36;;;;;;;0.20;0.17;;;;;;;;;;5010931;28;20053;-83
2023/08/26 09:53:28;;;;;;;0.82;0.57;;;;;;;;;;5017837;28;20419;-87
2023/08/26 09:55:58;;;;;;;0.40;0.38;;;;;;;;;;5021653;28;20072;-86
2023/08/26 09:58:24;;;;;;;0.20;0.10;;;;;;;;;;5018951;28;20640;-82
2023/08/26 10:00:50;;;;;;;0.20;0.10;;;;;;;;;;5030791;28;20077;-87
2023/08/26 10:03:22;;;;;;;0.63;0.55;;;;;;;;;;5020444;28;20037;-83
2023/08/26 10:05:51;;;;;;;0.95;0.60;;;;;;;;;;5009270;28;20126;-86
2023/08/26 10:08:17;;;;;;;0.20;0.20;;;;;;;;;;5019637;28;20495;-83
2023/08/26 10:11:02;;;;;;;;;;;;;;;;;;;;;
2023/08/26 10:13:49;;;;;;;0.20;0.10;;;;;;;;;;5017485;28;20488;-86
2023/08/26 10:16:19;;;;;;;0.30;0.30;;;;;;;;;;5017749;28;20037;-84
2023/08/26 10:19:03;;;;;;;0.20;0.10;;;;;;;;;;5002537;28;20486;-82
2023/08/26 10:21:29;;;;;;;0.35;0.30;;;;;;;;;;4995906;28;20516;-84
2023/08/26 10:24:02;;;;;;;0.20;0.10;;;;;;;;;;5020571;28;20306;-85
2023/08/26 10:26:31;;;;;;;0.22;0.13;;;;;;;;;;4995687;28;20497;-85
2023/08/26 10:29:03;;;;;;;0.30;0.30;;;;;;;;;;4992381;28;20057;-86
2023/08/26 10:31:46;;;;;;;0.20;0.10;;;;;;;;;;5009972;28;20041;-86
2023/08/26 10:34:31;;;;;;;0.20;0.20;;;;;;;;;;5011136;28;20489;-85
2023/08/26 10:37:15;;;;;;;0.30;0.28;;;;;;;;;;5011447;28;20045;-85
2023/08/26 10:40:04;;;;;;;0.20;0.10;;;;;;;;;;5012388;28;20049;-85
2023/08/26 10:42:58;;;;;;;0.20;0.08;;;;;;;;;;4995949;28;20041;-85
2023/08/26 10:45:24;;;;;;;0.20;0.20;;;;;;;;;;5010631;28;20038;-86
2023/08/26 10:47:55;;;;;;;0.20;0.10;;;;;;;;;;5009912;28;20037;-88
2023/08/26 10:50:45;;;;;;;;;;;;;;;;;;;;;
2023/08/26 10:53:32;;;;;;;0.20;0.13;;;;;;;;;;5017172;28;20162;-87
2023/08/26 10:56:28;;;;;;;0.20;0.10;;;;;;;;;;4993218;28;20053;-88
2023/08/26 10:59:12;;;;;;;0.20;0.08;;;;;;;;;;5010856;28;20102;-87
2023/08/26 11:01:53;;;;;;;0.20;0.10;;;;;;;;;;4999732;28;20033;-88
2023/08/26 11:04:58;;;;;;;0.20;0.03;;;;;;;;;;5010497;28;20720;-84
2023/08/26 11:07:39;;;;;;;0.20;0.10;;;;;;;;;;4990463;28;20045;-85
2023/08/26 11:10:33;;;;;;;0.55;0.45;;;;;;;;;;5017298;28;20045;-85
2023/08/26 11:12:59;;;;;;;0.20;0.10;;;;;;;;;;5007663;28;20320;-85
2023/08/26 11:15:28;;;;;;;0.20;0.10;;;;;;;;;;5028311;28;20084;-85
2023/08/26 11:17:58;;;;;;;0.20;0.10;;;;;;;;;;5014838;28;20080;-86
2023/08/26 11:20:30;;;;;;;0.20;0.10;;;;;;;;;;5017501;28;20037;-85
2023/08/26 11:22:57;;;;;;;0.20;0.10;;;;;;;;;;5009829;28;20049;-85
2023/08/26 11:25:33;;;;;;;0.20;0.20;;;;;;;;;;5014671;28;20124;-86
2023/08/26 11:28:18;;;;;;;0.20;0.10;;;;;;;;;;5017668;28;20512;-84
2023/08/26 11:30:57;;;;;;;0.20;0.10;;;;;;;;;;5006413;28;20085;-87
2023/08/26 11:33:28;;;;;;;0.20;0.00;;;;;;;;;;5006757;28;20037;-85
2023/08/26 11:35:57;;;;;;;0.20;0.10;;;;;;;;;;5021004;28;20046;-83
2023/08/26 11:38:24;;;;;;;0.20;0.10;;;;;;;;;;5004452;28;20278;-83
2023/08/26 11:40:50;;;;;;;0.20;0.10;;;;;;;;;;5013025;28;20608;-84
2023/08/26 11:43:39;;;;;;;0.20;0.10;;;;;;;;;;5014955;28;20061;-84
2023/08/26 11:46:19;;;;;;;0.20;0.10;;;;;;;;;;5013157;28;20132;-86
2023/08/26 11:51:37;;;;;;;0.50;0.28;;;;;;;;;;5026812;28;20132;-84
2023/08/26 11:54:42;;;;;;;0.20;0.10;;;;;;;;;;5028306;28;20054;-84
2023/08/26 11:57:11;;;;;;;0.32;0.17;;;;;;;;;;5016743;28;20379;-86
2023/08/26 11:59:50;;;;;;;0.20;0.10;;;;;;;;;;5027541;28;20088;-87
2023/08/26 12:02:42;;;;;;;0.20;0.10;;;;;;;;;;5028780;28;20096;-86
2023/08/26 12:05:14;;;;;;;0.20;0.10;;;;;;;;;;5024965;28;20410;-87
2023/08/26 12:11:39;;;;;;;;;;;;;;;;;;;;;
2023/08/26 12:14:19;;;;;;;0.95;0.52;;;;;;;;;;5011288;28;20037;-86
2023/08/26 12:16:51;;;;;;;0.20;0.10;;;;;;;;;;5025014;28;20030;-85
2023/08/26 12:19:20;;;;;;;0.20;0.10;;;;;;;;;;5026684;28;20053;-86
2023/08/26 12:21:52;;;;;;;0.20;0.08;;;;;;;;;;5029671;28;20041;-82
2023/08/26 12:24:27;;;;;;;0.20;0.20;;;;;;;;;;5012650;28;20139;-86
2023/08/26 12:27:16;;;;;;;0.20;0.20;;;;;;;;;;5008242;28;20868;-85
2023/08/26 12:29:48;;;;;;;0.20;0.10;;;;;;;;;;5018570;28;20057;-83
2023/08/26 12:32:17;;;;;;;0.20;0.08;;;;;;;;;;5009435;28;20104;-85
2023/08/26 12:34:45;;;;;;;0.20;0.13;;;;;;;;;;5024036;28;20154;-83
2023/08/26 12:37:11;;;;;;;0.20;0.10;;;;;;;;;;5027060;28;20030;-83
2023/08/26 12:39:38;;;;;;;0.50;0.15;;;;;;;;;;5026653;28;20052;-84
2023/08/26 12:42:24;;;;;;;0.20;0.10;;;;;;;;;;5014863;28;20046;-85
2023/08/26 12:45:16;;;;;;;0.22;0.20;;;;;;;;;;5025524;28;20401;-86
2023/08/26 12:48:15;;;;;;;0.20;0.10;;;;;;;;;;4999564;28;20080;-85
2023/08/26 12:50:58;;;;;;;0.20;0.10;;;;;;;;;;4961613;28;20043;-83
2023/08/26 12:53:43;;;;;;;0.20;0.10;;;;;;;;;;4969102;28;20049;-87
2023/08/26 12:56:14;;;;;;;0.20;0.10;;;;;;;;;;4988200;28;20375;-85
2023/08/26 12:58:42;;;;;;;0.20;0.05;;;;;;;;;;5006382;28;20071;-85
2023/08/26 13:01:08;;;;;;;0.20;0.10;;;;;;;;;;5021280;28;20383;-85
2023/08/26 13:04:05;;;;;;;0.20;0.10;;;;;;;;;;5027396;28;20732;-84
2023/08/26 13:06:51;;;;;;;0.20;0.10;;;;;;;;;;5029361;28;20053;-85
2023/08/26 13:09:23;;;;;;;0.20;0.20;;;;;;;;;;5025346;28;20045;-86
2023/08/26 13:11:58;;;;;;;0.20;0.10;;;;;;;;;;5025750;28;20049;-85
2023/08/26 13:14:27;;;;;;;0.20;0.10;;;;;;;;;;5027151;28;20406;-84
2023/08/26 13:17:00;;;;;;;0.30;0.20;;;;;;;;;;5017457;28;20376;-82
2023/08/26 13:19:37;;;;;;;0.20;0.10;;;;;;;;;;5024441;28;20053;-86
2023/08/26 13:22:12;;;;;;;0.20;0.10;;;;;;;;;;5006235;28;20046;-85
2023/08/26 13:24:39;;;;;;;0.20;0.10;;;;;;;;;;5025706;28;20766;-83
2023/08/26 13:27:05;;;;;;;0.20;0.10;;;;;;;;;;5028932;28;20441;-86
2023/08/26 13:29:33;;;;;;;0.30;0.30;;;;;;;;;;5014283;28;20422;-88
2023/08/26 13:32:02;;;;;;;0.20;0.10;;;;;;;;;;5027917;28;20037;-83
2023/08/26 13:34:37;;;;;;;0.20;0.10;;;;;;;;;;5023625;28;20038;-84
2023/08/26 13:37:05;;;;;;;0.20;0.10;;;;;;;;;;5024652;28;20514;-85
2023/08/26 13:39:34;;;;;;;0.20;0.10;;;;;;;;;;5028407;28;20072;-83
2023/08/26 13:42:00;;;;;;;0.20;0.10;;;;;;;;;;5011852;28;20466;-86
2023/08/26 13:44:41;;;;;;;0.20;0.10;;;;;;;;;;5014259;28;20394;-85
2023/08/26 13:47:13;;;;;;;0.20;0.00;;;;;;;;;;5007158;28;20038;-84
2023/08/26 13:49:42;;;;;;;0.20;0.10;;;;;;;;;;5019365;28;20049;-85
2023/08/26 13:52:11;;;;;;;0.20;0.10;;;;;;;;;;5026662;28;20046;-84
2023/08/26 13:54:50;;;;;;;0.20;0.10;;;;;;;;;;5028584;28;20050;-85
2023/08/26 13:57:16;;;;;;;2.20;0.32;;;;;;;;;;5004264;28;20588;-84
2023/08/26 13:59:42;;;;;;;0.20;0.10;;;;;;;;;;5028895;28;20137;-83
2023/08/26 14:02:20;;;;;;;0.32;0.10;;;;;;;;;;5019735;28;20447;-84
2023/08/26 14:04:55;;;;;;;0.68;0.63;;;;;;;;;;5042784;28;20483;-81
2023/08/26 14:07:21;;;;;;;0.20;0.10;;;;;;;;;;5026289;28;20053;-83
2023/08/26 14:09:47;;;;;;;0.20;0.10;;;;;;;;;;5023485;28;20053;-84
2023/08/26 14:12:13;;;;;;;0.30;0.22;;;;;;;;;;5011095;28;20041;-83
2023/08/26 14:14:42;;;;;;;0.32;0.30;;;;;;;;;;5023069;28;20041;-83
2023/08/26 14:17:08;;;;;;;0.38;0.30;;;;;;;;;;5035240;23;20052;-83
2023/08/26 14:19:43;;;;;;;0.20;0.10;;;;;;;;;;5016405;28;20053;-84
2023/08/26 14:22:09;;;;;;;0.20;0.10;;;;;;;;;;5005359;28;20041;-85
2023/08/26 14:24:35;;;;;;;0.20;0.20;;;;;;;;;;5016890;28;20041;-85
2023/08/26 14:27:04;;;;;;;0.20;0.10;;;;;;;;;;4999174;28;20061;-83
2023/08/26 14:29:30;;;;;;;0.20;0.03;;;;;;;;;;5000987;28;20107;-84
2023/08/26 14:31:58;;;;;;;0.20;0.10;;;;;;;;;;4979985;28;20566;-85
2023/08/26 14:34:24;;;;;;;0.22;0.20;;;;;;;;;;4994107;28;20081;-85
2023/08/26 14:36:50;;;;;;;0.20;0.10;;;;;;;;;;4991617;28;20037;-83
2023/08/26 14:39:16;;;;;;;0.20;0.17;;;;;;;;;;4980849;28;20040;-86
2023/08/26 14:41:42;;;;;;;0.20;0.10;;;;;;;;;;4984215;28;20034;-82
2023/08/26 14:44:08;;;;;;;0.25;0.10;;;;;;;;;;4988259;28;20041;-83
2023/08/26 14:46:34;;;;;;;0.20;0.10;;;;;;;;;;4989643;28;20049;-81
2023/08/26 14:49:00;;;;;;;0.20;0.17;;;;;;;;;;4991545;28;20181;-82
2023/08/26 14:51:26;;;;;;;0.20;0.00;;;;;;;;;;4991915;28;20035;-82
2023/08/26 14:53:53;;;;;;;0.20;0.10;;;;;;;;;;4982273;28;20426;-85
2023/08/26 14:56:22;;;;;;;0.20;0.10;;;;;;;;;;4982962;28;20042;-84
2023/08/26 14:58:56;;;;;;;0.20;0.00;;;;;;;;;;4973342;28;20042;-84
2023/08/26 15:01:22;;;;;;;0.20;0.05;;;;;;;;;;4992571;28;20050;-86
2023/08/26 15:03:48;;;;;;;0.20;0.10;;;;;;;;;;4991917;28;20500;-85
2023/08/26 15:06:20;;;;;;;0.20;0.10;;;;;;;;;;4991006;28;20041;-85
2023/08/26 15:08:46;;;;;;;0.20;0.10;;;;;;;;;;4991675;28;20042;-84
2023/08/26 15:11:15;;;;;;;0.20;0.10;;;;;;;;;;4986591;28;20034;-84
2023/08/26 15:17:07;;;;;;;0.20;0.10;;;;;;;;;;4991857;28;20855;-87
2023/08/26 15:19:39;;;;;;;0.20;0.10;;;;;;;;;;4980517;28;20491;-84